| 205183 | 2026/3/11 17:42:04 | sent | https://recruiting.paylocity.com/Recruiting/Jobs/Detail... | 10,000 | US | 2026-03-11 | |
| 205182 | 2026/3/11 17:42:04 | sent | https://recruitingbypaycor.com/career/JobIntroduction.a... | 10,000 | US | 2026-03-11 | |
| 205181 | 2026/3/11 17:42:04 | sent | http://valenz.applytojob.com/apply/dY9PHWfsUU/Director-... | 10,000 | US | 2026-03-11 | |
| 205180 | 2026/3/11 17:42:04 | sent | http://valenz.applytojob.com/apply/ExRu1barjY/VP-Of-Dig... | 10,000 | US | 2026-03-11 | |
| 205179 | 2026/3/11 17:42:04 | sent | https://boards.greenhouse.io/transcarent/jobs/578057300... | 6,549 | US | 2026-03-11 | |
| 205178 | 2026/3/11 17:42:04 | sent | http://valenz.applytojob.com/apply/VylNrg2pXA/Contract-... | 10,000 | US | 2026-03-11 | |
| 205177 | 2026/3/11 17:42:04 | sent | http://geonetric.applytojob.com/apply/ddSFGmmjcZ/Softwa... | 10,000 | US | 2026-03-11 | |
| 205176 | 2026/3/11 17:42:04 | sent | https://boards.greenhouse.io/transcarent/jobs/581907600... | 7,000 | US | 2026-03-11 | |
| 205174 | 2026/3/11 17:42:04 | sent | https://careers.talkdesk.com/jobs?id=6831958&gh_jid=683... | 10,000 | US | 2026-03-11 | |
| 205175 | 2026/3/11 17:42:04 | sent | https://boards.greenhouse.io/transcarent/jobs/580866900... | 10,000 | US | 2026-03-11 | |
| 205173 | 2026/3/11 17:42:04 | sent | https://job-boards.greenhouse.io/lisc/jobs/4665157005 | 10,000 | US | 2026-03-11 | |
| 205172 | 2026/3/11 17:42:04 | sent | https://job-boards.greenhouse.io/lisc/jobs/4665248005 | 10,000 | US | 2026-03-11 | |
| 205171 | 2026/3/11 17:42:04 | sent | https://job-boards.greenhouse.io/keyfactorinc/jobs/5789... | 10,000 | US | 2026-03-11 | |
| 205170 | 2026/3/11 17:42:04 | sent | https://job-boards.greenhouse.io/keyfactorinc/jobs/5813... | 10,000 | US | 2026-03-11 | |
| 205169 | 2026/3/11 17:42:04 | sent | https://job-boards.greenhouse.io/headspaceproviders/job... | 10,000 | US | 2026-03-11 | |
| 205168 | 2026/3/11 17:42:03 | sent | https://www.careers.zurich.com/job/United-States-Instru... | 8,501 | US | 2026-03-11 | |
| 205166 | 2026/3/11 17:42:03 | sent | https://clarity-rcm.breezy.hr/p/54f2378b463a-credential... | 10,000 | US | 2026-03-11 | |
| 205167 | 2026/3/11 17:42:03 | sent | https://clarity-rcm.breezy.hr/p/12ab64ea607d-revenue-cy... | 10,000 | US | 2026-03-11 | |
| 205165 | 2026/3/11 17:42:03 | sent | https://jobs.ashbyhq.com/simspace-corporation/fcb254d3-... | 10,000 | US | 2026-03-11 | |
| 205164 | 2026/3/11 17:42:03 | sent | https://jobs.ashbyhq.com/astronomer/e98ccc46-d571-4ce0-... | 10,000 | US | 2026-03-11 | |
| 205163 | 2026/3/11 17:42:03 | sent | https://jobs.ashbyhq.com/astronomer/64d2ea10-2768-4159-... | 10,000 | US | 2026-03-11 | |
| 205162 | 2026/3/11 17:42:03 | sent | https://jobs.ashbyhq.com/astronomer/08d23092-f04f-42ab-... | 10,000 | US | 2026-03-11 | |
| 205161 | 2026/3/11 17:42:03 | sent | https://jobs.ashbyhq.com/astronomer/8ff1e0a8-1f5a-4138-... | 10,000 | US | 2026-03-11 | |
| 205160 | 2026/3/11 17:42:03 | sent | https://pm.healthcaresource.com/CS/exeterhospital/#/job... | 10,000 | US | 2026-03-11 | |
| 205159 | 2026/3/11 17:42:03 | sent | https://jobs.lever.co/LEOTechnologies/193c2ab7-ed6d-4d0... | 10,000 | US | 2026-03-11 | |
| 205158 | 2026/3/11 17:42:03 | sent | https://jobs.lever.co/LEOTechnologies/1847504a-c707-443... | 10,000 | US | 2026-03-11 | |
| 205157 | 2026/3/11 17:42:03 | sent | http://prizepicks.com/position?gh_jid=7618625003 | 10,000 | US | 2026-03-11 | |
| 205155 | 2026/3/11 17:42:03 | sent | http://prizepicks.com/position?gh_jid=7649808003 | 10,000 | US | 2026-03-11 | |
| 205154 | 2026/3/11 17:42:03 | sent | https://pmpediatrics.wd5.myworkdayjobs.com/behavioralhe... | 8,270 | US | 2026-03-11 | |
| 205153 | 2026/3/11 17:42:03 | sent | http://prizepicks.com/position?gh_jid=7609234003 | 10,000 | US | 2026-03-11 | |
| 205156 | 2026/3/11 17:42:03 | sent | https://pmpediatrics.wd5.myworkdayjobs.com/behavioralhe... | 8,821 | US | 2026-03-11 | |
| 205151 | 2026/3/11 17:42:03 | sent | https://pmpediatrics.wd5.myworkdayjobs.com/behavioralhe... | 9,700 | US | 2026-03-11 | |
| 205152 | 2026/3/11 17:42:03 | sent | https://pmpediatrics.wd5.myworkdayjobs.com/behavioralhe... | 8,367 | US | 2026-03-11 | |
| 205150 | 2026/3/11 17:42:03 | sent | https://pmpediatrics.wd5.myworkdayjobs.com/pmpeds/job/R... | 8,350 | US | 2026-03-11 | |
| 205148 | 2026/3/11 17:42:03 | sent | https://jobs.lever.co/giddyup/54555375-1b3e-4d08-b0a8-9... | 10,000 | US | 2026-03-11 | |
| 205149 | 2026/3/11 17:42:03 | sent | https://pmpediatrics.wd5.myworkdayjobs.com/pmpeds/job/R... | 8,250 | US | 2026-03-11 | |
| 205147 | 2026/3/11 17:42:03 | sent | https://pmpediatrics.wd5.myworkdayjobs.com/pmpeds/job/R... | 8,388 | US | 2026-03-11 | |
| 205146 | 2026/3/11 17:42:03 | sent | https://pmpediatrics.wd5.myworkdayjobs.com/pmpeds/job/R... | 9,680 | US | 2026-03-11 | |
| 205145 | 2026/3/11 17:42:03 | sent | https://workforcenow.adp.com/mascsr/default/mdf/recruit... | 9,143 | US | 2026-03-11 | |
| 205144 | 2026/3/11 17:42:03 | sent | https://sluhn.wd1.myworkdayjobs.com/nursing-recruiting/... | 10,000 | US | 2026-03-11 | |
| 205143 | 2026/3/11 17:42:03 | sent | https://sluhn.wd1.myworkdayjobs.com/nursing-recruiting/... | 10,000 | US | 2026-03-11 | |
| 205142 | 2026/3/11 17:42:03 | sent | https://pmpediatrics.wd5.myworkdayjobs.com/pmpeds2/job/... | 8,829 | US | 2026-03-11 | |
| 205141 | 2026/3/11 17:42:03 | sent | https://pmpediatrics.wd5.myworkdayjobs.com/pmpeds2/job/... | 8,276 | US | 2026-03-11 | |
| 205140 | 2026/3/11 17:42:03 | sent | https://pmpediatrics.wd5.myworkdayjobs.com/pmpeds2/job/... | 8,386 | US | 2026-03-11 | |
| 205139 | 2026/3/11 17:42:03 | sent | https://workforcenow.adp.com/mascsr/default/mdf/recruit... | 9,143 | US | 2026-03-11 | |
| 205138 | 2026/3/11 17:42:03 | sent | https://pmpediatrics.wd5.myworkdayjobs.com/pmpeds2/job/... | 9,682 | US | 2026-03-11 | |
| 205137 | 2026/3/11 17:42:03 | sent | http://procarehra8.applytojob.com/apply/P8EFAOdI27/Payr... | 10,000 | US | 2026-03-11 | |
| 205136 | 2026/3/11 17:42:03 | sent | https://job-boards.greenhouse.io/trellahealth/jobs/5803... | 10,000 | US | 2026-03-11 | |
| 205135 | 2026/3/11 17:42:03 | sent | http://procarehra8.applytojob.com/apply/jk94VW8uyg/Soft... | 10,000 | US | 2026-03-11 | |
| 205134 | 2026/3/11 17:42:03 | sent | http://procarehra8.applytojob.com/apply/YI89jE4F0N/Payr... | 10,000 | US | 2026-03-11 | |